Time;durP1;ratioP1;P1;durP2;ratioP2;P2;SDS_P1;SDS_P2;PMS_P1;PMS_P2;Temp;Humidity;BMP_temperature;BMP_pressure;BME280_temperature;BME280_humidity;BME280_pressure;Samples;Min_cycle;Max_cycle;Signal;HPM_P1;HPM_P2
2023/10/29 00:01:46;;;;;;;13.93;1.80;;;11.70;99.90;;;10.88;100.00;98802.50;4185143;28;20036;-73
2023/10/29 00:03:47;;;;;;;14.18;2.53;;;11.60;99.90;;;10.88;100.00;98810.41;4204108;28;20047;-73
2023/10/29 00:05:48;;;;;;;15.98;2.80;;;11.60;99.90;;;10.94;100.00;98804.31;4184876;28;20077;-73
2023/10/29 00:07:48;;;;;;;12.45;2.55;;;11.70;99.90;;;10.92;100.00;98818.72;4210748;28;20028;-73
2023/10/29 00:09:49;;;;;;;15.05;2.40;;;11.60;99.90;;;10.84;100.00;98814.47;4202626;28;20024;-73
2023/10/29 00:11:50;;;;;;;13.88;2.60;;;11.60;99.90;;;10.89;100.00;98813.84;4202225;28;20040;-73
2023/10/29 00:13:51;;;;;;;11.77;2.78;;;11.60;99.90;;;10.85;100.00;98820.53;4202624;28;20057;-73
2023/10/29 00:15:52;;;;;;;13.57;2.20;;;11.60;99.90;;;10.89;100.00;98822.59;4202426;28;20028;-73
2023/10/29 00:17:52;;;;;;;10.00;1.90;;;11.60;99.90;;;10.87;100.00;98821.97;4184691;28;20024;-73
2023/10/29 00:19:53;;;;;;;14.25;2.17;;;11.60;99.90;;;10.81;100.00;98814.88;4184917;28;20025;-73
2023/10/29 00:21:54;;;;;;;13.38;2.22;;;11.60;99.90;;;10.81;100.00;98817.50;4176606;28;20045;-73
2023/10/29 00:23:55;;;;;;;18.35;2.83;;;11.60;99.90;;;10.86;100.00;98823.00;4185847;28;20036;-73
2023/10/29 00:25:56;;;;;;;14.75;2.58;;;11.60;99.90;;;10.77;100.00;98811.03;4185665;28;20076;-73
2023/10/29 00:27:56;;;;;;;16.95;2.67;;;11.60;99.90;;;10.75;100.00;98813.03;4184679;28;20025;-73
2023/10/29 00:29:57;;;;;;;11.25;2.85;;;11.60;99.90;;;10.77;100.00;98812.84;4185927;28;20036;-73
2023/10/29 00:31:58;;;;;;;12.52;3.85;;;11.60;99.90;;;10.80;100.00;98812.44;4185826;28;20029;-73
2023/10/29 00:33:59;;;;;;;14.05;2.30;;;11.60;99.90;;;10.82;100.00;98818.31;4184956;28;20020;-73
2023/10/29 00:36:00;;;;;;;14.77;2.88;;;11.60;99.90;;;10.77;100.00;98818.13;4185525;28;20052;-74
2023/10/29 00:38:01;;;;;;;12.70;2.20;;;11.60;99.90;;;10.76;100.00;98813.84;4185802;28;20025;-73
2023/10/29 00:40:02;;;;;;;16.05;2.72;;;11.50;99.90;;;10.76;100.00;98825.22;4185368;28;20048;-73
2023/10/29 00:42:03;;;;;;;11.30;2.47;;;11.50;99.90;;;10.72;100.00;98821.38;4185729;28;20064;-73
2023/10/29 00:44:04;;;;;;;18.45;2.45;;;11.50;99.90;;;10.69;100.00;98829.72;4185479;28;20029;-73
2023/10/29 00:46:05;;;;;;;14.45;2.30;;;11.50;99.90;;;10.65;100.00;98823.22;4183759;28;20048;-73
2023/10/29 00:48:08;;;;;;;12.02;2.20;;;11.40;99.90;;;10.63;100.00;98819.97;4176051;28;20028;-73
2023/10/29 00:50:09;;;;;;;10.18;2.40;;;11.40;99.90;;;10.57;100.00;98818.16;4185495;28;20040;-73
2023/10/29 00:52:10;;;;;;;11.27;1.80;;;11.40;99.90;;;10.52;100.00;98823.19;4200866;28;20033;-73
2023/10/29 00:54:10;;;;;;;16.85;2.22;;;11.40;99.90;;;10.46;100.00;98826.63;4173182;28;20055;-73
2023/10/29 00:56:12;;;;;;;15.32;2.63;;;11.30;99.90;;;10.45;100.00;98817.13;4167472;28;20037;-73
2023/10/29 00:58:13;;;;;;;10.57;2.05;;;11.20;99.90;;;10.47;100.00;98823.81;4184333;28;20096;-73
2023/10/29 01:00:21;;;;;;;11.63;2.22;;;11.30;99.90;;;10.44;100.00;98828.66;4185311;28;20021;-73
2023/10/29 01:02:21;;;;;;;12.82;2.42;;;11.20;99.90;;;10.37;100.00;98823.38;4216109;28;20020;-73
2023/10/29 01:04:23;;;;;;;15.73;2.25;;;11.20;99.90;;;10.35;100.00;98830.69;4184023;28;20075;-73
2023/10/29 01:06:23;;;;;;;7.90;2.05;;;11.20;99.90;;;10.31;100.00;98828.66;4181215;28;20018;-73
2023/10/29 01:08:25;;;;;;;16.13;2.92;;;11.10;99.90;;;10.26;100.00;98816.09;4181825;28;20032;-73
2023/10/29 01:10:26;;;;;;;13.18;2.65;;;11.20;99.90;;;10.38;100.00;98821.56;4185161;28;20025;-73
2023/10/29 01:12:27;;;;;;;10.07;2.78;;;11.10;99.90;;;10.32;100.00;98825.00;4185375;28;20028;-73
2023/10/29 01:14:28;;;;;;;10.68;2.40;;;11.10;99.90;;;10.26;100.00;98825.81;4184177;28;20036;-73
2023/10/29 01:16:29;;;;;;;10.05;2.53;;;11.10;99.90;;;10.31;100.00;98833.91;4183925;28;20017;-73
2023/10/29 01:18:30;;;;;;;10.55;2.40;;;11.10;99.90;;;10.25;100.00;98827.63;4183911;28;20021;-73
2023/10/29 01:20:31;;;;;;;10.15;1.67;;;11.10;99.90;;;10.23;100.00;98840.19;4183994;28;20029;-74
2023/10/29 01:22:33;;;;;;;12.57;2.72;;;11.00;99.90;;;10.18;100.00;98837.38;4192690;28;20511;-73
2023/10/29 01:24:34;;;;;;;11.25;1.65;;;11.00;99.90;;;10.14;100.00;98836.13;4167276;28;20032;-73
2023/10/29 01:26:35;;;;;;;8.57;1.70;;;11.00;99.90;;;10.15;100.00;98844.84;4183633;28;20056;-73
2023/10/29 01:28:36;;;;;;;11.88;2.53;;;11.00;99.90;;;10.31;100.00;98847.09;4201823;28;20029;-73
2023/10/29 01:30:36;;;;;;;9.23;1.90;;;11.00;99.90;;;10.54;100.00;98842.28;4201740;28;20028;-73
2023/10/29 01:32:38;;;;;;;16.58;1.88;;;11.20;99.90;;;10.83;100.00;98844.50;4184026;28;20032;-73
2023/10/29 01:34:38;;;;;;;11.65;2.28;;;11.40;99.90;;;11.01;100.00;98844.69;4201976;28;20028;-73
2023/10/29 01:36:39;;;;;;;12.40;2.00;;;11.60;99.90;;;11.09;100.00;98835.75;4183840;28;20079;-73
2023/10/29 01:38:40;;;;;;;10.38;2.60;;;11.80;99.90;;;11.18;100.00;98837.16;4184043;28;20025;-73
2023/10/29 01:40:41;;;;;;;13.55;2.15;;;11.80;99.90;;;11.08;100.00;98828.84;4201624;28;20498;-73
2023/10/29 01:42:43;;;;;;;6.95;1.10;;;11.90;99.90;;;11.00;100.00;98829.06;4201614;28;20029;-74
2023/10/29 01:44:44;;;;;;;14.32;2.53;;;11.80;99.90;;;10.90;100.00;98834.75;4202338;28;20020;-74
2023/10/29 01:46:45;;;;;;;9.38;1.95;;;11.70;99.90;;;10.88;100.00;98834.16;4198584;28;20480;-73
2023/10/29 01:48:46;;;;;;;14.18;1.63;;;11.70;99.90;;;10.85;100.00;98824.00;4200549;28;20032;-74
2023/10/29 01:50:47;;;;;;;7.95;2.20;;;11.70;99.90;;;10.81;100.00;98824.63;4187146;28;20484;-74
2023/10/29 01:52:48;;;;;;;10.73;2.70;;;11.60;99.90;;;10.75;100.00;98823.59;4186789;28;20547;-73
2023/10/29 01:54:49;;;;;;;7.55;1.58;;;11.60;99.90;;;10.76;100.00;98825.22;4186812;28;20063;-73
2023/10/29 01:56:50;;;;;;;14.30;1.95;;;11.60;99.90;;;10.79;100.00;98819.53;4193675;28;20028;-73
2023/10/29 01:58:51;;;;;;;16.33;2.85;;;11.60;99.90;;;10.88;100.00;98817.50;4188560;28;20025;-73
2023/10/29 02:00:55;;;;;;;13.32;2.97;;;11.70;99.90;;;10.91;100.00;98820.53;4205023;28;20032;-73
2023/10/29 02:02:55;;;;;;;14.45;2.88;;;11.70;99.90;;;10.88;100.00;98817.50;4210163;28;20024;-73
2023/10/29 02:04:56;;;;;;;12.63;2.05;;;11.60;99.90;;;10.83;100.00;98809.41;4210089;28;20036;-73
2023/10/29 02:06:57;;;;;;;14.85;1.88;;;11.60;99.90;;;10.74;100.00;98810.63;4204519;28;20549;-73
2023/10/29 02:09:01;;;;;;;7.97;1.45;;;11.60;99.90;;;10.63;100.00;98808.59;4204692;28;20030;-73
2023/10/29 02:11:02;;;;;;;5.38;1.50;;;11.50;99.90;;;10.53;100.00;98803.72;4204439;28;20024;-73
2023/10/29 02:13:03;;;;;;;17.92;1.58;;;11.40;99.90;;;10.44;100.00;98797.84;4204593;28;20083;-73
2023/10/29 02:15:05;;;;;;;7.70;1.52;;;11.30;99.90;;;10.31;100.00;98791.75;4204329;28;20032;-73
2023/10/29 02:17:06;;;;;;;8.90;1.75;;;11.20;99.90;;;10.23;100.00;98797.22;4186901;28;20112;-73
2023/10/29 02:19:07;;;;;;;9.10;1.73;;;11.10;99.90;;;10.18;100.00;98803.09;4197887;28;20441;-73
2023/10/29 02:21:07;;;;;;;14.88;3.15;;;11.00;99.90;;;10.11;100.00;98804.06;4204174;28;20059;-73
2023/10/29 02:23:08;;;;;;;9.52;1.58;;;11.00;99.90;;;10.08;100.00;98800.00;4186251;28;20025;-73
2023/10/29 02:25:09;;;;;;;9.63;1.85;;;10.90;99.90;;;10.08;100.00;98799.19;4202978;28;20017;-73
2023/10/29 02:27:10;;;;;;;8.13;1.77;;;10.90;99.90;;;10.08;100.00;98793.94;4204402;28;20025;-73
2023/10/29 02:29:11;;;;;;;13.32;1.50;;;10.90;99.90;;;10.08;100.00;98799.19;4204275;28;20017;-73
2023/10/29 02:31:19;;;;;;;11.00;1.63;;;10.90;99.90;;;10.10;100.00;98771.63;4186272;28;20108;-73
2023/10/29 02:33:20;;;;;;;11.55;2.05;;;10.90;99.90;;;10.13;100.00;98771.25;4204263;28;20028;-73
2023/10/29 02:35:20;;;;;;;4.07;1.40;;;10.90;99.90;;;10.19;100.00;98780.19;4186464;28;20072;-73
2023/10/29 02:37:21;;;;;;;6.63;1.80;;;11.00;99.90;;;10.26;100.00;98791.56;4186416;28;20033;-73
2023/10/29 02:39:22;;;;;;;10.07;1.63;;;11.10;99.90;;;10.29;100.00;98785.88;4203917;28;20491;-73
2023/10/29 02:41:23;;;;;;;11.07;2.38;;;11.10;99.90;;;10.38;100.00;98789.94;4204011;28;20407;-73
2023/10/29 02:43:26;;;;;;;10.65;2.03;;;11.20;99.90;;;10.49;100.00;98799.88;4204015;28;20024;-73
2023/10/29 02:45:27;;;;;;;10.25;1.48;;;11.30;99.90;;;10.55;100.00;98799.06;4204129;28;20025;-74
2023/10/29 02:47:28;;;;;;;10.98;1.80;;;11.30;99.90;;;10.65;100.00;98817.94;4204024;28;20031;-73
2023/10/29 02:49:28;;;;;;;9.40;1.65;;;11.40;99.90;;;10.68;100.00;98832.53;4204065;28;20031;-73
2023/10/29 02:51:29;;;;;;;13.13;1.83;;;11.40;99.90;;;10.75;100.00;98839.41;4186306;28;20021;-73
2023/10/29 02:53:31;;;;;;;19.77;2.88;;;11.50;99.90;;;10.79;100.00;98827.44;4208780;28;20035;-73
2023/10/29 02:55:32;;;;;;;9.27;1.95;;;11.60;99.90;;;10.91;100.00;98839.00;4217453;28;20088;-73
2023/10/29 02:57:33;;;;;;;8.63;2.05;;;11.60;99.90;;;11.07;100.00;98812.22;4203080;28;20031;-73
2023/10/29 02:59:34;;;;;;;12.13;2.25;;;11.70;99.90;;;11.15;100.00;98811.16;4203936;28;20442;-73
2023/10/29 03:01:35;;;;;;;11.10;2.40;;;11.80;99.90;;;11.18;100.00;98818.66;4203899;28;20032;-73
2023/10/29 03:03:37;;;;;;;9.70;1.63;;;11.90;99.90;;;11.22;100.00;98811.97;4203528;28;20028;-73
2023/10/29 03:05:38;;;;;;;11.82;1.88;;;11.90;99.90;;;11.25;100.00;98803.66;4203820;28;20074;-73
2023/10/29 03:07:38;;;;;;;10.70;1.67;;;12.00;99.90;;;11.22;100.00;98793.50;4200953;28;20037;-73
2023/10/29 03:09:40;;;;;;;12.25;2.40;;;12.00;99.90;;;11.14;100.00;98791.06;4198300;28;20484;-73
2023/10/29 03:11:40;;;;;;;6.97;1.55;;;11.90;99.90;;;11.06;100.00;98778.91;4185490;28;20451;-73
2023/10/29 03:13:41;;;;;;;9.18;2.03;;;11.90;99.90;;;10.92;100.00;98769.41;4203770;28;20040;-73
2023/10/29 03:15:43;;;;;;;9.07;1.95;;;11.80;99.90;;;10.81;100.00;98774.53;4186072;28;20074;-73
2023/10/29 03:17:44;;;;;;;18.25;2.40;;;11.60;99.90;;;10.74;100.00;98769.25;4203404;28;20036;-73
2023/10/29 03:19:44;;;;;;;6.60;1.85;;;11.50;99.90;;;10.65;100.00;98767.84;4203504;28;20024;-73
2023/10/29 03:21:47;;;;;;;7.35;1.95;;;11.40;99.90;;;10.59;100.00;98768.66;4178131;28;20519;-73
2023/10/29 03:23:48;;;;;;;7.75;1.73;;;11.40;99.90;;;10.53;100.00;98766.84;4185632;28;20040;-73
2023/10/29 03:25:49;;;;;;;8.35;1.67;;;11.30;99.90;;;10.45;100.00;98759.91;4200818;28;20052;-73
2023/10/29 03:27:50;;;;;;;14.68;1.85;;;11.20;99.90;;;10.42;100.00;98733.19;4201324;28;20020;-73
2023/10/29 03:29:51;;;;;;;7.68;1.27;;;11.20;99.90;;;10.38;100.00;98740.69;4185683;28;20036;-73
2023/10/29 03:31:51;;;;;;;10.10;1.55;;;11.20;99.90;;;10.35;100.00;98737.63;4203355;28;20020;-73
2023/10/29 03:33:52;;;;;;;7.13;1.85;;;11.10;99.90;;;10.31;100.00;98737.22;4185585;28;20029;-73
2023/10/29 03:35:53;;;;;;;12.65;1.70;;;11.10;99.90;;;10.28;100.00;98739.44;4203117;28;20032;-73
2023/10/29 03:37:54;;;;;;;12.82;2.50;;;11.10;99.90;;;10.25;100.00;98751.22;4185523;28;20032;-73
2023/10/29 03:39:55;;;;;;;10.07;2.38;;;11.00;99.90;;;10.21;100.00;98736.03;4183544;28;20032;-73
2023/10/29 03:41:56;;;;;;;8.23;1.60;;;11.00;99.90;;;10.15;100.00;98737.66;4197074;28;20033;-73
2023/10/29 03:43:57;;;;;;;7.68;1.60;;;10.90;99.90;;;10.08;100.00;98725.44;4185389;28;20025;-73
2023/10/29 03:45:59;;;;;;;6.07;1.60;;;10.90;99.90;;;10.03;100.00;98728.69;4203085;28;20032;-73
2023/10/29 03:48:00;;;;;;;7.97;1.35;;;10.80;99.90;;;9.97;100.00;98729.50;4168862;28;20029;-73
2023/10/29 03:50:02;;;;;;;8.77;1.65;;;10.80;99.90;;;9.91;100.00;98720.56;4202969;28;20028;-73
2023/10/29 03:52:03;;;;;;;10.63;2.03;;;10.70;99.90;;;9.86;100.00;98707.19;4185132;28;20013;-73
2023/10/29 03:54:04;;;;;;;5.40;1.35;;;10.70;99.90;;;9.83;100.00;98694.41;4179972;28;20092;-73
2023/10/29 03:56:06;;;;;;;5.70;1.35;;;10.60;99.90;;;9.84;100.00;98698.69;4218247;28;20030;-73
2023/10/29 03:58:07;;;;;;;8.60;2.20;;;10.60;99.90;;;9.82;100.00;98715.69;4185250;28;20025;-73
2023/10/29 04:00:09;;;;;;;11.45;2.13;;;10.60;99.90;;;9.84;100.00;98734.72;4184947;28;20496;-73
2023/10/29 04:02:09;;;;;;;8.52;1.48;;;10.60;99.90;;;9.85;100.00;98733.72;4202508;28;20035;-73
2023/10/29 04:04:10;;;;;;;9.00;1.88;;;10.60;99.90;;;9.85;100.00;98710.84;4202749;28;20398;-73
2023/10/29 04:06:11;;;;;;;8.82;1.85;;;10.60;99.90;;;9.86;100.00;98707.19;4202758;28;20032;-73
2023/10/29 04:08:13;;;;;;;8.15;1.33;;;10.60;99.90;;;9.86;100.00;98690.56;4185041;28;20029;-73
2023/10/29 04:10:14;;;;;;;13.00;2.13;;;10.60;99.90;;;9.81;100.00;98688.53;4202535;28;20025;-73
2023/10/29 04:12:15;;;;;;;11.75;1.70;;;10.60;99.90;;;9.84;100.00;98685.50;4185037;28;20507;-73
2023/10/29 04:14:16;;;;;;;6.90;1.38;;;10.60;99.90;;;9.84;100.00;98672.34;4202612;28;20025;-73
2023/10/29 04:16:17;;;;;;;7.65;1.48;;;10.60;99.90;;;9.88;100.00;98668.31;4184775;28;20037;-73
2023/10/29 04:18:19;;;;;;;8.68;1.58;;;10.70;99.90;;;9.91;100.00;98667.91;4202359;28;20028;-73
2023/10/29 04:20:20;;;;;;;10.07;1.63;;;10.70;99.90;;;9.98;100.00;98673.16;4184753;28;20116;-73
2023/10/29 04:22:22;;;;;;;14.70;2.20;;;10.80;99.90;;;10.04;100.00;98667.06;4202064;28;20064;-73
2023/10/29 04:24:23;;;;;;;9.55;2.05;;;10.80;99.90;;;10.10;100.00;98675.97;4202527;28;20517;-73
2023/10/29 04:26:24;;;;;;;11.73;1.63;;;10.80;99.90;;;10.11;100.00;98678.44;4202023;28;20032;-73
2023/10/29 04:28:25;;;;;;;7.70;1.35;;;10.90;99.90;;;10.13;100.00;98684.31;4202364;28;20016;-73
2023/10/29 04:30:26;;;;;;;8.07;1.50;;;10.90;99.90;;;10.16;100.00;98689.19;4202440;28;20020;-73
2023/10/29 04:32:27;;;;;;;9.32;1.83;;;10.90;99.90;;;10.14;100.00;98672.78;4218085;28;20133;-74
2023/10/29 04:34:28;;;;;;;6.97;1.38;;;10.90;99.90;;;10.17;100.00;98679.47;4202304;28;20029;-73
2023/10/29 04:36:29;;;;;;;7.60;1.20;;;10.90;99.90;;;10.19;100.00;98682.69;4202340;28;20496;-73
2023/10/29 04:38:31;;;;;;;8.20;1.67;;;10.90;99.90;;;10.22;100.00;98663.84;4202347;28;20028;-73
2023/10/29 04:40:32;;;;;;;6.50;1.27;;;11.00;99.90;;;10.28;100.00;98666.47;4184393;28;20021;-73
2023/10/29 04:42:33;;;;;;;14.15;2.53;;;11.00;99.90;;;10.32;100.00;98680.06;4201998;28;20029;-73
2023/10/29 04:44:33;;;;;;;9.75;2.05;;;11.10;99.90;;;10.39;100.00;98676.41;4184567;28;20025;-73
2023/10/29 04:46:34;;;;;;;5.47;1.30;;;11.10;99.90;;;10.42;100.00;98668.06;4184372;28;20404;-73
2023/10/29 04:48:35;;;;;;;9.68;1.67;;;11.20;99.90;;;10.43;100.00;98676.81;4202102;28;20024;-73
2023/10/29 04:50:36;;;;;;;15.23;1.80;;;11.20;99.90;;;10.44;100.00;98688.97;4201992;28;20067;-73
2023/10/29 04:52:38;;;;;;;11.70;2.85;;;11.20;99.90;;;10.48;100.00;98683.06;4198688;28;20029;-73
2023/10/29 04:54:39;;;;;;;12.25;3.13;;;11.20;99.90;;;10.52;100.00;98670.28;4176045;28;20582;-73
2023/10/29 04:56:40;;;;;;;8.07;1.73;;;11.20;99.90;;;10.53;100.00;98637.66;4201829;28;20063;-73
2023/10/29 04:58:40;;;;;;;13.43;1.73;;;11.30;99.90;;;10.57;100.00;98651.25;4184288;28;20500;-73
2023/10/29 05:00:41;;;;;;;11.70;2.30;;;11.30;99.90;;;10.59;100.00;98667.66;4201745;28;20495;-73
2023/10/29 05:02:42;;;;;;;8.00;2.05;;;11.40;99.90;;;10.60;100.00;98664.81;4201854;28;20038;-73
2023/10/29 05:04:43;;;;;;;11.95;2.45;;;11.30;99.90;;;10.62;100.00;98681.25;4201758;28;20031;-73
2023/10/29 05:06:44;;;;;;;13.40;2.20;;;11.40;99.90;;;10.63;100.00;98682.88;4183514;28;20067;-73
2023/10/29 05:08:44;;;;;;;11.88;1.45;;;11.40;99.90;;;10.66;100.00;98658.72;4184000;28;20028;-73
2023/10/29 05:10:46;;;;;;;11.20;1.95;;;11.40;99.90;;;10.69;100.00;98660.94;4183888;28;20036;-74
2023/10/29 05:12:47;;;;;;;8.88;2.20;;;11.40;99.90;;;10.69;100.00;98670.69;4201861;28;20031;-74
2023/10/29 05:14:51;;;;;;;8.95;1.50;;;11.40;99.90;;;10.70;100.00;98677.56;4201912;28;20029;-73
2023/10/29 05:16:52;;;;;;;17.85;2.15;;;11.40;99.90;;;10.68;100.00;98661.97;4201895;28;20024;-73
2023/10/29 05:18:53;;;;;;;13.85;2.28;;;11.50;99.90;;;10.80;100.00;98656.84;4183970;28;20033;-73
2023/10/29 05:20:54;;;;;;;11.68;1.85;;;11.50;99.90;;;10.84;100.00;98636.97;4196629;28;20025;-73
2023/10/29 05:22:54;;;;;;;12.48;2.53;;;11.60;99.90;;;10.86;100.00;98622.53;4198538;28;20032;-73
2023/10/29 05:24:56;;;;;;;9.55;2.17;;;11.60;99.90;;;10.87;100.00;98610.94;4201653;28;20023;-73
2023/10/29 05:26:57;;;;;;;12.77;2.42;;;11.60;99.90;;;10.86;100.00;98604.06;4201848;28;20107;-73
2023/10/29 05:28:58;;;;;;;11.63;1.85;;;11.60;99.90;;;10.86;100.00;98585.63;4183858;28;20052;-73
2023/10/29 05:31:00;;;;;;;10.10;2.05;;;11.60;99.90;;;10.83;100.00;98559.66;4201636;28;20024;-73
2023/10/29 05:33:00;;;;;;;10.48;1.40;;;11.60;99.90;;;10.79;100.00;98553.19;4201869;28;20040;-73
2023/10/29 05:35:01;;;;;;;11.48;2.53;;;11.60;99.90;;;10.77;100.00;98563.13;4183797;28;20434;-73
2023/10/29 05:37:02;;;;;;;13.85;2.22;;;11.60;99.90;;;10.76;100.00;98577.34;4201888;28;20032;-73
2023/10/29 05:39:06;;;;;;;16.65;2.28;;;11.50;99.90;;;10.72;100.00;98570.84;4201650;28;20024;-73
2023/10/29 05:41:07;;;;;;;8.23;1.42;;;11.50;99.90;;;10.68;100.00;98572.31;4183696;28;20116;-73
2023/10/29 05:43:08;;;;;;;7.63;1.50;;;11.40;99.90;;;10.60;100.00;98569.91;4201568;28;20415;-73
2023/10/29 05:45:09;;;;;;;10.10;2.80;;;11.40;99.90;;;10.53;100.00;98577.84;4201747;28;20037;-73
2023/10/29 05:47:10;;;;;;;7.15;1.27;;;11.40;99.90;;;10.49;100.00;98575.81;4183622;28;20021;-73
2023/10/29 05:49:11;;;;;;;13.40;1.83;;;11.30;99.90;;;10.45;100.00;98570.16;4183550;28;20445;-73
2023/10/29 05:51:18;;;;;;;8.88;2.20;;;11.30;99.90;;;10.42;100.00;98564.50;4183620;28;20032;-73
2023/10/29 05:53:19;;;;;;;11.43;2.45;;;11.20;99.90;;;10.38;100.00;98560.66;4207543;28;20040;-73
2023/10/29 05:55:22;;;;;;;10.15;1.50;;;11.10;99.90;;;10.35;100.00;98569.78;4197988;28;20029;-73
2023/10/29 05:57:23;;;;;;;13.60;1.70;;;11.10;99.90;;;10.33;100.00;98568.38;4201588;28;20056;-73
2023/10/29 05:59:23;;;;;;;13.02;1.60;;;11.10;99.90;;;10.28;100.00;98561.09;4183771;28;20029;-73
2023/10/29 06:01:25;;;;;;;10.30;1.77;;;11.10;99.90;;;10.30;100.00;98572.25;4201429;28;20411;-73
2023/10/29 06:03:25;;;;;;;7.80;1.73;;;11.10;99.90;;;10.25;100.00;98569.41;4201305;28;20027;-73
2023/10/29 06:05:26;;;;;;;11.13;2.10;;;11.10;99.90;;;10.25;100.00;98571.22;4201613;28;20021;-73
2023/10/29 06:07:27;;;;;;;10.25;1.42;;;11.10;99.90;;;10.25;100.00;98568.59;4201620;28;20017;-73
2023/10/29 06:09:28;;;;;;;6.13;1.00;;;11.10;99.90;;;10.22;100.00;98569.81;4201504;28;20025;-73
2023/10/29 06:11:29;;;;;;;7.45;1.23;;;11.10;99.90;;;10.18;100.00;98570.44;4183316;28;20064;-74
2023/10/29 06:13:29;;;;;;;8.63;1.38;;;11.00;99.90;;;10.15;100.00;98569.03;4201232;28;20024;-73
2023/10/29 06:15:30;;;;;;;15.82;1.77;;;11.00;99.90;;;10.19;100.00;98567.59;4201274;28;20426;-73
2023/10/29 06:17:31;;;;;;;12.32;1.70;;;11.00;99.90;;;10.22;100.00;98558.47;4201389;28;20040;-74
2023/10/29 06:19:33;;;;;;;8.52;1.42;;;11.00;99.90;;;10.24;100.00;98559.09;4183391;28;20032;-73
2023/10/29 06:21:34;;;;;;;9.63;1.77;;;11.00;99.90;;;10.28;100.00;98565.53;4193402;28;20052;-73
2023/10/29 06:23:35;;;;;;;9.48;1.60;;;11.10;99.90;;;10.32;100.00;98578.09;4201082;28;20024;-73
2023/10/29 06:25:37;;;;;;;15.57;2.95;;;11.10;99.90;;;10.39;100.00;98576.25;4183238;28;20025;-73
2023/10/29 06:27:37;;;;;;;6.38;1.70;;;11.10;99.90;;;10.46;100.00;98581.50;4167103;28;20093;-73
2023/10/29 06:29:38;;;;;;;15.00;1.77;;;11.20;99.90;;;10.48;100.00;98579.50;4201147;28;20028;-73
2023/10/29 06:31:39;;;;;;;12.52;1.52;;;11.20;99.90;;;10.54;100.00;98597.13;4201790;28;20029;-73
2023/10/29 06:33:41;;;;;;;5.72;0.88;;;11.30;99.90;;;10.58;100.00;98600.94;4204238;28;20399;-73
2023/10/29 06:35:42;;;;;;;10.02;1.40;;;11.40;99.90;;;10.64;100.00;98715.28;4204165;28;20025;-73
2023/10/29 06:37:43;;;;;;;21.35;3.20;;;11.40;99.90;;;10.81;100.00;98777.16;4186235;28;20086;-73
2023/10/29 06:39:44;;;;;;;9.25;2.20;;;11.50;99.90;;;10.55;100.00;98727.88;4186355;28;20029;-73
2023/10/29 06:41:44;;;;;;;2.97;0.68;;;11.40;99.90;;;10.14;100.00;98679.88;4202819;28;20461;-73
2023/10/29 06:43:45;;;;;;;4.03;0.90;;;11.10;99.90;;;9.95;100.00;98668.28;4186234;28;20029;-73
2023/10/29 06:45:46;;;;;;;1.27;0.40;;;10.90;99.90;;;9.83;100.00;98672.53;4204026;28;20032;-73
2023/10/29 06:47:47;;;;;;;5.30;0.50;;;10.70;99.90;;;9.72;100.00;98671.31;4186416;28;20024;-73
2023/10/29 06:49:49;;;;;;;3.70;0.47;;;10.50;99.90;;;9.69;100.00;98673.53;4186176;28;20035;-73
2023/10/29 06:51:50;;;;;;;3.30;0.63;;;10.40;99.90;;;9.67;100.00;98679.03;4186517;28;20017;-73
2023/10/29 06:53:51;;;;;;;8.60;0.77;;;10.40;99.90;;;9.66;100.00;98676.56;4203744;28;20503;-73
2023/10/29 06:55:52;;;;;;;4.20;0.50;;;10.40;99.90;;;9.65;100.00;98682.84;4186177;28;20035;-73
2023/10/29 06:57:53;;;;;;;2.22;0.40;;;10.30;99.90;;;9.64;100.00;98660.19;4219343;28;20531;-73
2023/10/29 06:59:56;;;;;;;3.88;0.40;;;10.30;99.90;;;9.60;100.00;98665.03;4203974;28;20491;-73
2023/10/29 07:01:59;;;;;;;1.27;0.30;;;10.30;99.90;;;9.57;100.00;98647.00;4191122;28;20029;-73
2023/10/29 07:03:59;;;;;;;2.45;0.43;;;10.30;99.90;;;9.52;100.00;98638.91;4203712;28;20032;-73
2023/10/29 07:06:11;;;;;;;2.55;0.75;;;10.20;99.90;;;9.51;100.00;98624.13;4203778;28;20028;-73
2023/10/29 07:08:12;;;;;;;2.97;0.57;;;10.20;99.90;;;9.50;100.00;98634.84;4203762;28;20020;-73
2023/10/29 07:10:13;;;;;;;2.95;0.60;;;10.20;99.90;;;9.43;100.00;98638.28;4203320;28;20532;-73
2023/10/29 07:12:14;;;;;;;2.88;0.77;;;10.20;99.90;;;9.38;100.00;98634.59;4203746;28;20020;-73
2023/10/29 07:14:16;;;;;;;2.83;0.40;;;10.10;99.90;;;9.29;100.00;98643.69;4203672;28;20040;-73
2023/10/29 07:16:16;;;;;;;5.88;0.35;;;10.10;99.90;;;9.21;100.00;98649.97;4203589;28;20052;-73
2023/10/29 07:18:17;;;;;;;4.55;0.40;;;10.00;99.90;;;9.12;100.00;98647.69;4203474;28;20058;-73
2023/10/29 07:20:18;;;;;;;1.90;0.40;;;10.00;99.90;;;9.09;100.00;98658.63;4203832;28;20086;-74
2023/10/29 07:22:19;;;;;;;2.53;0.40;;;9.90;99.90;;;9.05;100.00;98668.72;4191593;28;20106;-73
2023/10/29 07:24:20;;;;;;;2.00;0.40;;;9.90;99.90;;;9.00;100.00;98676.38;4199203;28;20412;-73
2023/10/29 07:26:21;;;;;;;3.78;0.47;;;9.80;99.90;;;8.97;100.00;98670.69;4193530;28;20021;-73
2023/10/29 07:28:22;;;;;;;6.57;0.70;;;9.80;99.90;;;8.98;100.00;98675.78;4185707;28;20025;-73
2023/10/29 07:30:22;;;;;;;5.20;1.17;;;9.80;99.90;;;8.97;100.00;98681.22;4203601;28;20025;-73
2023/10/29 07:32:23;;;;;;;6.28;0.85;;;9.70;99.90;;;8.97;100.00;98692.56;4203220;28;20070;-73
2023/10/29 07:34:24;;;;;;;6.05;0.80;;;9.80;99.90;;;8.96;100.00;98695.41;4203182;28;20043;-73
2023/10/29 07:36:25;;;;;;;4.95;0.52;;;9.70;99.90;;;8.97;100.00;98697.81;4185297;28;20055;-73
2023/10/29 07:38:26;;;;;;;6.57;0.90;;;9.70;99.90;;;8.99;100.00;98703.69;4218842;28;20035;-73
2023/10/29 07:40:27;;;;;;;8.15;1.23;;;9.80;99.90;;;9.01;100.00;98716.66;4203215;28;20020;-73
2023/10/29 07:42:27;;;;;;;2.42;0.57;;;9.80;99.90;;;9.06;100.00;98719.50;4184993;28;20035;-73
2023/10/29 07:44:28;;;;;;;8.18;0.98;;;9.80;99.90;;;9.04;100.00;98711.81;4203167;28;20041;-73
2023/10/29 07:46:29;;;;;;;10.50;1.38;;;9.80;99.90;;;9.08;100.00;98720.13;4200181;28;20036;-73
2023/10/29 07:48:30;;;;;;;13.60;2.03;;;9.80;99.90;;;9.14;100.00;98719.34;4202933;28;20032;-73
2023/10/29 07:50:31;;;;;;;11.27;1.75;;;9.90;99.90;;;9.16;100.00;98720.78;4202910;28;20028;-73
2023/10/29 07:52:39;;;;;;;12.43;1.67;;;10.00;99.90;;;9.22;100.00;98719.16;4182730;28;20037;-73
2023/10/29 07:54:40;;;;;;;7.55;1.33;;;10.00;99.90;;;9.27;100.00;98716.75;4176763;28;20041;-73
2023/10/29 07:56:41;;;;;;;6.30;1.17;;;10.00;99.90;;;9.33;100.00;98731.75;4202803;28;20029;-73
2023/10/29 07:58:42;;;;;;;7.28;1.65;;;10.10;99.90;;;9.37;100.00;98728.53;4202782;28;20557;-73
2023/10/29 08:00:43;;;;;;;5.00;0.70;;;10.10;99.90;;;9.44;100.00;98725.91;4185200;28;20024;-73
2023/10/29 08:02:45;;;;;;;8.57;2.13;;;10.20;99.90;;;9.55;100.00;98725.34;4201381;28;20385;-74
2023/10/29 08:04:46;;;;;;;7.43;2.00;;;10.30;99.90;;;9.73;100.00;98720.34;4200064;28;20529;-73
2023/10/29 08:06:47;;;;;;;6.57;0.88;;;10.50;99.90;;;10.00;100.00;98721.19;4172215;28;20026;-73
2023/10/29 08:08:48;;;;;;;5.18;1.33;;;10.70;99.90;;;10.27;100.00;98727.31;4201926;28;20497;-74
2023/10/29 08:10:51;;;;;;;13.10;1.50;;;10.90;99.90;;;10.55;100.00;98731.34;4190635;28;20036;-74
2023/10/29 08:12:54;;;;;;;7.35;1.13;;;11.10;99.90;;;10.71;100.00;98731.94;4207155;28;20024;-73
2023/10/29 08:14:56;;;;;;;13.02;2.42;;;11.30;99.90;;;10.67;100.00;98731.50;4184107;28;20025;-73
2023/10/29 08:16:57;;;;;;;13.27;1.10;;;11.40;99.90;;;10.75;100.00;98733.94;4202196;28;20036;-73
2023/10/29 08:18:59;;;;;;;16.58;2.15;;;11.50;99.90;;;10.97;100.00;98735.31;4201437;28;20040;-75
2023/10/29 08:21:00;;;;;;;11.90;3.13;;;11.60;99.90;;;11.11;100.00;98741.34;4196591;28;20020;-73
2023/10/29 08:23:01;;;;;;;8.52;2.05;;;11.80;99.90;;;11.23;100.00;98744.16;4199572;28;20029;-73